createdAt,value
2022-09-04T00:00:11.646Z,100716.13
2022-09-04T00:03:23.047Z,100717.19
2022-09-04T00:06:29.063Z,100722.56
2022-09-04T00:09:47.423Z,100719.94
2022-09-04T00:12:54.443Z,100719.94
2022-09-04T00:16:05.818Z,100726.03
2022-09-04T00:19:35.513Z,100730.44
2022-09-04T00:22:37.777Z,100733.84
2022-09-04T00:25:58.654Z,100734.75
2022-09-04T00:29:05.950Z,100741.75
2022-09-04T00:32:11.283Z,100744.47
2022-09-04T00:35:19.344Z,100754.22
2022-09-04T00:38:34.130Z,100751.81
2022-09-04T00:41:52.210Z,100756.03
2022-09-04T00:45:16.503Z,100746.38
2022-09-04T00:48:22.159Z,100754.22
2022-09-04T00:51:30.945Z,100757.81
2022-09-04T00:54:33.235Z,100758.00
2022-09-04T00:57:39.402Z,100751.97
2022-09-04T01:00:45.507Z,100751.56
2022-09-04T01:04:00.068Z,100746.31
2022-09-04T01:07:06.276Z,100753.62
2022-09-04T01:10:12.072Z,100754.09
2022-09-04T01:13:14.357Z,100756.69
2022-09-04T01:16:19.699Z,100760.06
2022-09-04T01:19:28.018Z,100756.34
2022-09-04T01:22:51.143Z,100759.41
2022-09-04T01:26:12.409Z,100758.19
2022-09-04T01:29:28.425Z,100753.06
2022-09-04T01:32:40.769Z,100768.72
2022-09-04T01:35:49.650Z,100766.59
2022-09-04T01:38:59.656Z,100770.72
2022-09-04T01:42:09.349Z,100783.09
2022-09-04T01:45:11.722Z,100783.31
2022-09-04T01:48:18.788Z,100785.09
2022-09-04T01:51:33.355Z,100783.31
2022-09-04T01:54:52.819Z,100786.72
2022-09-04T01:57:55.146Z,100790.91
2022-09-04T02:01:00.468Z,100796.75
2022-09-04T02:04:12.021Z,100794.31
2022-09-04T02:07:26.930Z,100795.81
2022-09-04T02:10:41.723Z,100793.19
2022-09-04T02:13:56.515Z,100792.34
2022-09-04T02:17:08.849Z,100790.34
2022-09-04T02:20:23.186Z,100793.75
2022-09-04T02:23:30.035Z,100790.06
2022-09-04T02:26:36.808Z,100786.72
2022-09-04T02:29:58.051Z,100787.56
2022-09-04T02:33:03.327Z,100791.12
2022-09-04T02:36:13.870Z,100789.91
2022-09-04T02:39:39.438Z,100792.59
2022-09-04T02:43:00.215Z,100796.53
2022-09-04T02:46:17.661Z,100797.44
2022-09-04T02:49:23.050Z,100789.97
2022-09-04T02:52:44.439Z,100800.00
2022-09-04T02:56:02.745Z,100795.75
2022-09-04T02:59:11.593Z,100792.03
2022-09-04T03:02:21.477Z,100792.72
2022-09-04T03:05:30.753Z,100797.62
2022-09-04T03:08:36.880Z,100798.72
2022-09-04T03:11:41.863Z,100802.41
2022-09-04T03:14:48.939Z,100793.91
2022-09-04T03:17:58.908Z,100789.16
2022-09-04T03:21:14.643Z,100793.94
2022-09-04T03:24:26.336Z,100799.19
2022-09-04T03:27:31.110Z,100795.59
2022-09-04T03:30:36.284Z,100790.63
2022-09-04T03:33:44.133Z,100791.62
2022-09-04T03:37:12.832Z,100793.47
2022-09-04T03:40:15.422Z,100803.34
2022-09-04T03:43:31.306Z,100814.13
2022-09-04T03:46:36.687Z,100810.84
2022-09-04T03:49:57.982Z,100820.63
2022-09-04T03:53:14.006Z,100827.66
2022-09-04T03:56:25.078Z,100830.37
2022-09-04T04:00:12.465Z,100834.38
2022-09-04T04:03:34.166Z,100832.16
2022-09-04T04:06:42.924Z,100841.28
2022-09-04T04:10:04.096Z,100838.03
2022-09-04T04:13:15.503Z,100838.97
2022-09-04T04:16:26.658Z,100844.13
2022-09-04T04:19:45.062Z,100845.03
2022-09-04T04:23:06.815Z,100845.62
2022-09-04T04:26:12.696Z,100852.50
2022-09-04T04:29:20.914Z,100870.47
2022-09-04T04:32:38.661Z,100876.94
2022-09-04T04:36:00.526Z,100876.78
2022-09-04T04:39:03.054Z,100886.97
2022-09-04T04:42:24.052Z,100891.66
2022-09-04T04:45:55.324Z,100891.37
2022-09-04T04:48:57.585Z,100900.63
2022-09-04T04:52:23.867Z,100908.13
2022-09-04T04:55:35.109Z,100901.19
2022-09-04T04:59:03.958Z,100898.13
2022-09-04T05:02:24.111Z,100889.59
2022-09-04T05:05:41.678Z,100907.16
2022-09-04T05:08:48.016Z,100910.12
2022-09-04T05:12:02.438Z,100908.37
2022-09-04T05:15:18.182Z,100923.84
2022-09-04T05:18:29.752Z,100918.91
2022-09-04T05:21:39.095Z,100930.06
2022-09-04T05:24:41.653Z,100929.09
2022-09-04T05:27:43.887Z,100918.72
2022-09-04T05:30:50.999Z,100921.16
2022-09-04T05:34:00.026Z,100922.22
2022-09-04T05:37:21.252Z,100929.47
2022-09-04T05:40:26.879Z,100934.34
2022-09-04T05:43:48.503Z,100935.00
2022-09-04T05:46:51.942Z,100932.94
2022-09-04T05:50:17.656Z,100937.75
2022-09-04T05:53:29.801Z,100943.59
2022-09-04T05:56:51.322Z,100943.09
2022-09-04T05:59:59.782Z,100947.41
2022-09-04T06:03:21.028Z,100958.38
2022-09-04T06:06:23.695Z,100951.00
2022-09-04T06:09:44.513Z,100950.25
2022-09-04T06:13:05.722Z,100951.75
2022-09-04T06:16:08.070Z,100941.28
2022-09-04T06:19:28.990Z,100943.41
2022-09-04T06:22:34.381Z,100944.75
2022-09-04T06:25:49.680Z,100949.53
2022-09-04T06:28:52.261Z,100946.41
2022-09-04T06:32:13.053Z,100953.03
2022-09-04T06:35:15.342Z,100957.53
2022-09-04T06:38:18.004Z,100952.78
2022-09-04T06:41:28.192Z,100962.06
2022-09-04T06:44:44.522Z,100955.63
2022-09-04T06:47:52.806Z,100962.13
2022-09-04T06:51:01.211Z,100953.97
2022-09-04T06:54:10.224Z,100965.50
2022-09-04T06:57:12.819Z,100970.06
2022-09-04T07:00:16.137Z,100961.06
2022-09-04T07:03:24.891Z,100967.97
2022-09-04T07:06:27.197Z,100975.91
2022-09-04T07:09:36.139Z,100973.97
2022-09-04T07:12:50.848Z,100972.00
2022-09-04T07:15:57.198Z,100986.53
2022-09-04T07:19:18.712Z,100977.78
2022-09-04T07:22:40.686Z,100982.87
2022-09-04T07:25:50.814Z,100983.72
2022-09-04T07:29:08.649Z,100986.09
2022-09-04T07:32:20.521Z,100994.69
2022-09-04T07:35:29.338Z,100992.19
2022-09-04T07:38:50.693Z,100999.91
2022-09-04T07:41:59.801Z,100999.78
2022-09-04T07:45:05.999Z,101004.47
2022-09-04T07:48:14.976Z,100995.31
2022-09-04T07:51:19.746Z,101004.84
2022-09-04T07:54:51.818Z,101017.41
2022-09-04T07:57:54.182Z,101014.56
2022-09-04T08:00:56.943Z,101007.50
2022-09-04T08:04:18.460Z,101001.31
2022-09-04T08:07:32.867Z,101008.22
2022-09-04T08:10:39.447Z,101008.50
2022-09-04T08:13:48.183Z,101011.97
2022-09-04T08:17:24.605Z,101013.44
2022-09-04T08:20:36.642Z,101017.00
2022-09-04T08:23:57.765Z,101014.94
2022-09-04T08:27:10.575Z,101022.44
2022-09-04T08:30:14.735Z,101016.13
2022-09-04T08:33:23.937Z,101021.03
2022-09-04T08:36:43.800Z,101029.09
2022-09-04T08:39:49.177Z,101027.84
2022-09-04T08:42:54.592Z,101027.06
2022-09-04T08:46:15.841Z,101024.91
2022-09-04T08:49:18.959Z,101030.44
2022-09-04T08:52:40.076Z,101039.88
2022-09-04T08:55:48.406Z,101033.06
2022-09-04T08:58:55.157Z,101039.47
2022-09-04T09:02:16.957Z,101040.41
2022-09-04T09:05:38.240Z,101041.94
2022-09-04T09:08:47.208Z,101048.19
2022-09-04T09:11:50.092Z,101052.53
2022-09-04T09:15:11.345Z,101050.66
2022-09-04T09:18:33.760Z,101047.03
2022-09-04T09:21:45.426Z,101045.50
2022-09-04T09:25:04.550Z,101045.44
2022-09-04T09:28:16.535Z,101055.66
2022-09-04T09:32:01.655Z,101055.91
2022-09-04T09:35:08.611Z,101052.94
2022-09-04T09:38:26.259Z,101062.78
2022-09-04T09:41:32.016Z,101059.16
2022-09-04T09:44:53.372Z,101059.78
2022-09-04T09:48:14.650Z,101059.75
2022-09-04T09:51:16.992Z,101063.38
2022-09-04T09:54:31.819Z,101063.63
2022-09-04T09:57:45.437Z,101057.87
2022-09-04T10:00:59.822Z,101052.34
2022-09-04T10:04:21.568Z,101044.22
2022-09-04T10:07:37.012Z,101051.25
2022-09-04T10:10:50.218Z,101048.44
2022-09-04T10:14:04.843Z,101052.22
2022-09-04T10:17:07.513Z,101065.56
2022-09-04T10:20:28.990Z,101061.06
2022-09-04T10:23:50.066Z,101054.03
2022-09-04T10:27:04.691Z,101051.88
2022-09-04T10:30:13.850Z,101060.72
2022-09-04T10:33:29.415Z,101049.44
2022-09-04T10:36:51.058Z,101052.69
2022-09-04T10:40:31.035Z,101046.34
2022-09-04T10:43:49.159Z,101050.00
2022-09-04T10:47:11.324Z,101049.06
2022-09-04T10:50:24.101Z,101056.12
2022-09-04T10:53:28.588Z,101053.38
2022-09-04T10:56:47.173Z,101049.81
2022-09-04T10:59:59.153Z,101045.31
2022-09-04T11:03:22.372Z,101050.59
2022-09-04T11:06:26.305Z,101048.62
2022-09-04T11:09:28.987Z,101045.22
2022-09-04T11:12:31.725Z,101041.75
2022-09-04T11:15:48.017Z,101048.22
2022-09-04T11:19:10.426Z,101049.19
2022-09-04T11:22:42.422Z,101052.25
2022-09-04T11:26:05.823Z,101047.28
2022-09-04T11:29:27.208Z,101052.16
2022-09-04T11:32:52.228Z,101051.31
2022-09-04T11:36:00.902Z,101054.06
2022-09-04T11:39:23.540Z,101056.41
2022-09-04T11:42:41.391Z,101050.00
2022-09-04T11:45:48.803Z,101058.31
2022-09-04T11:49:13.384Z,101070.47
2022-09-04T11:52:22.703Z,101064.25
2022-09-04T11:55:28.939Z,101050.56
2022-09-04T11:58:41.851Z,101055.97
2022-09-04T12:02:04.471Z,101049.94
2022-09-04T12:05:39.599Z,101044.22
2022-09-04T12:08:57.101Z,101039.94
2022-09-04T12:12:00.975Z,101033.69
2022-09-04T12:15:32.508Z,101029.09
2022-09-04T12:18:56.084Z,101026.44
2022-09-04T12:22:01.421Z,101028.00
2022-09-04T12:25:23.647Z,101035.66
2022-09-04T12:28:39.637Z,101024.53
2022-09-04T12:31:46.986Z,101034.72
2022-09-04T12:35:14.108Z,101019.66
2022-09-04T12:38:24.537Z,101021.59
2022-09-04T12:41:49.799Z,101022.00
2022-09-04T12:45:15.788Z,101021.16
2022-09-04T12:48:20.991Z,101021.81
2022-09-04T12:51:25.237Z,101011.16
2022-09-04T12:54:27.590Z,101016.34
2022-09-04T12:57:38.098Z,101005.75
2022-09-04T13:00:55.393Z,101004.81
2022-09-04T13:04:06.338Z,100998.56
2022-09-04T13:07:15.831Z,100992.63
2022-09-04T13:10:19.208Z,100994.34
2022-09-04T13:13:25.153Z,100993.97
2022-09-04T13:16:33.219Z,100995.31
2022-09-04T13:19:46.519Z,100994.88
2022-09-04T13:23:03.151Z,100988.56
2022-09-04T13:26:07.837Z,100980.19
2022-09-04T13:29:19.465Z,100981.47
2022-09-04T13:32:36.610Z,100977.06
2022-09-04T13:35:43.583Z,100968.53
2022-09-04T13:39:04.879Z,100974.59
2022-09-04T13:42:23.380Z,100972.53
2022-09-04T13:45:28.405Z,100982.19
2022-09-04T13:48:32.675Z,100980.88
2022-09-04T13:51:43.107Z,100978.22
2022-09-04T13:54:48.524Z,100978.00
2022-09-04T13:57:57.287Z,100976.56
2022-09-04T14:01:01.401Z,100976.69
2022-09-04T14:04:11.392Z,100972.37
2022-09-04T14:07:18.829Z,100974.59
2022-09-04T14:10:25.709Z,100967.34
2022-09-04T14:13:43.350Z,100976.97
2022-09-04T14:16:46.256Z,100971.69
2022-09-04T14:19:54.881Z,100974.47
2022-09-04T14:23:11.926Z,100977.53
2022-09-04T14:26:30.091Z,100976.81
2022-09-04T14:29:38.503Z,100971.88
2022-09-04T14:32:41.946Z,100969.94
2022-09-04T14:35:55.620Z,100964.75
2022-09-04T14:39:04.056Z,100973.47
2022-09-04T14:42:23.343Z,100975.34
2022-09-04T14:45:31.424Z,100981.66
2022-09-04T14:48:40.843Z,100977.06
2022-09-04T14:51:46.251Z,100974.03
2022-09-04T14:54:54.173Z,100973.81
2022-09-04T14:58:05.056Z,100981.56
2022-09-04T15:01:19.617Z,100984.78
2022-09-04T15:04:24.987Z,100990.91
2022-09-04T15:07:42.820Z,100986.72
2022-09-04T15:10:51.509Z,100994.28
2022-09-04T15:14:26.247Z,100991.81
2022-09-04T15:17:29.896Z,100994.06
2022-09-04T15:20:36.066Z,100990.25
2022-09-04T15:23:45.514Z,100995.12
2022-09-04T15:26:55.733Z,100997.78
2022-09-04T15:29:58.353Z,100998.50
2022-09-04T15:33:09.396Z,101005.06
2022-09-04T15:36:22.532Z,100998.72
2022-09-04T15:39:32.123Z,100999.31
2022-09-04T15:42:38.614Z,101007.81
2022-09-04T15:45:50.442Z,101008.56
2022-09-04T15:49:11.980Z,101004.50
2022-09-04T15:52:36.983Z,101001.56
2022-09-04T15:55:41.250Z,101002.09
2022-09-04T15:58:54.886Z,101003.50
2022-09-04T16:01:58.356Z,101012.87
2022-09-04T16:05:24.536Z,101007.53
2022-09-04T16:08:32.808Z,101008.47
2022-09-04T16:11:39.272Z,101003.97
2022-09-04T16:14:48.584Z,101004.84
2022-09-04T16:17:53.011Z,101004.72
2022-09-04T16:20:59.924Z,100998.19
2022-09-04T16:24:09.076Z,100992.38
2022-09-04T16:27:13.942Z,100994.28
2022-09-04T16:30:52.936Z,100996.44
2022-09-04T16:33:58.486Z,101005.63
2022-09-04T16:37:09.610Z,100997.88
2022-09-04T16:40:32.785Z,100991.66
2022-09-04T16:43:35.483Z,100996.47
2022-09-04T16:46:40.833Z,100995.19
2022-09-04T16:49:53.348Z,101002.16
2022-09-04T16:53:05.899Z,100997.09
2022-09-04T16:56:35.935Z,100995.81
2022-09-04T16:59:41.931Z,101004.91
2022-09-04T17:03:09.969Z,101002.87
2022-09-04T17:06:21.569Z,101004.59
2022-09-04T17:09:24.175Z,101001.38
2022-09-04T17:12:42.063Z,101001.66
2022-09-04T17:16:00.909Z,101005.88
2022-09-04T17:19:03.478Z,101008.91
2022-09-04T17:28:57.472Z,101005.59
2022-09-04T17:29:10.272Z,101007.53
2022-09-04T17:30:02.301Z,101015.12
2022-09-04T17:38:35.933Z,101016.28
2022-09-04T17:40:52.364Z,101020.84
2022-09-04T17:40:55.436Z,101026.03
2022-09-04T17:43:27.816Z,101027.63
2022-09-04T17:46:39.039Z,101038.56
2022-09-04T17:49:44.551Z,101048.09
2022-09-04T17:52:58.603Z,101054.78
2022-09-04T17:56:13.961Z,101049.16
2022-09-04T17:59:19.298Z,101058.09
2022-09-04T18:02:28.780Z,101065.78
2022-09-04T18:05:31.534Z,101069.72
2022-09-04T18:08:55.978Z,101075.53
2022-09-04T18:12:04.295Z,101083.78
2022-09-04T18:15:32.251Z,101089.16
2022-09-04T18:18:46.638Z,101085.31
2022-09-04T18:22:25.934Z,101095.34
2022-09-04T18:25:28.684Z,101091.37
2022-09-04T18:28:35.683Z,101108.31
2022-09-04T18:37:08.640Z,101102.69
2022-09-04T18:37:24.171Z,101113.75
2022-09-04T18:39:08.929Z,101116.88
2022-09-04T18:49:29.691Z,101119.06
2022-09-04T18:50:31.399Z,101129.78
2022-09-04T18:50:45.118Z,101138.09
2022-09-04T18:52:50.309Z,101130.81
2022-09-04T18:55:59.185Z,101141.84
2022-09-04T18:59:06.071Z,101138.66
2022-09-04T19:02:23.042Z,101137.91
2022-09-04T19:05:44.420Z,101142.81
2022-09-04T19:08:50.415Z,101147.41
2022-09-04T19:11:55.604Z,101157.09
2022-09-04T19:14:59.039Z,101154.53
2022-09-04T19:18:09.763Z,101158.78
2022-09-04T19:21:16.151Z,101156.16
2022-09-04T19:24:18.860Z,101161.34
2022-09-04T19:27:30.457Z,101157.75
2022-09-04T19:30:54.451Z,101162.09
2022-09-04T19:33:59.809Z,101157.75
2022-09-04T19:37:46.816Z,101159.63
2022-09-04T19:45:55.729Z,101156.38
2022-09-04T19:46:14.682Z,101160.09
2022-09-04T19:47:29.225Z,101157.62
2022-09-04T19:53:22.202Z,101164.84
2022-09-04T19:54:12.684Z,101157.88
2022-09-04T19:57:32.688Z,101166.19
2022-09-04T20:00:43.839Z,101159.53
2022-09-04T20:03:59.514Z,101162.78
2022-09-04T20:07:09.177Z,101156.38
2022-09-04T20:10:20.227Z,101156.09
2022-09-04T20:13:25.966Z,101158.22
2022-09-04T20:16:36.653Z,101158.41
2022-09-04T20:19:39.100Z,101160.56
2022-09-04T20:22:50.248Z,101159.00
2022-09-04T20:25:58.156Z,101155.66
2022-09-04T20:29:03.544Z,101150.72
2022-09-04T20:32:15.465Z,101161.22
2022-09-04T20:35:32.908Z,101161.31
2022-09-04T20:38:42.412Z,101170.75
2022-09-04T20:41:45.082Z,101158.28
2022-09-04T20:48:00.943Z,101160.84
2022-09-04T20:52:41.314Z,101149.72
2022-09-04T20:53:07.227Z,101150.78
2022-09-04T20:55:24.151Z,101151.78
2022-09-04T21:03:08.143Z,101150.22
2022-09-04T21:03:22.275Z,101155.91
2022-09-04T21:05:49.813Z,101152.88
2022-09-04T21:08:56.845Z,101151.69
2022-09-04T21:12:04.595Z,101152.97
2022-09-04T21:15:10.575Z,101155.00
2022-09-04T21:18:19.040Z,101158.69
2022-09-04T21:21:22.202Z,101174.94
2022-09-04T21:24:33.441Z,101182.03
2022-09-04T21:27:54.148Z,101176.34
2022-09-04T21:30:59.465Z,101172.94
2022-09-04T21:34:01.947Z,101175.63
2022-09-04T21:37:22.958Z,101181.00
2022-09-04T21:40:49.435Z,101181.28
2022-09-04T21:44:07.031Z,101192.19
2022-09-04T21:47:25.818Z,101187.19
2022-09-04T21:50:58.780Z,101187.19
2022-09-04T21:54:01.723Z,101191.75
2022-09-04T22:02:25.256Z,101189.37
2022-09-04T22:02:37.499Z,101187.75
2022-09-04T22:04:03.167Z,101189.72
2022-09-04T22:11:28.211Z,101190.75
2022-09-04T22:13:43.378Z,101189.13
2022-09-04T22:14:40.639Z,101188.38
2022-09-04T22:18:01.862Z,101196.34
2022-09-04T22:21:24.404Z,101192.19
2022-09-04T22:24:26.930Z,101185.38
2022-09-04T22:28:02.567Z,101191.47
2022-09-04T22:31:33.895Z,101190.63
2022-09-04T22:34:36.298Z,101196.72
2022-09-04T22:37:48.235Z,101189.97
2022-09-04T22:41:09.350Z,101194.50
2022-09-04T22:44:15.548Z,101200.00
2022-09-04T22:47:36.676Z,101198.03
2022-09-04T22:50:50.144Z,101198.19
2022-09-04T22:54:11.967Z,101192.97
2022-09-04T22:57:22.396Z,101193.16
2022-09-04T23:00:24.635Z,101204.59
2022-09-04T23:03:36.271Z,101202.78
2022-09-04T23:09:22.115Z,101199.53
2022-09-04T23:13:52.745Z,101203.25
2022-09-04T23:14:17.406Z,101205.38
2022-09-04T23:18:08.052Z,101203.91
2022-09-04T23:26:35.495Z,101203.19
2022-09-04T23:26:43.775Z,101203.06
2022-09-04T23:28:36.055Z,101201.38
2022-09-04T23:32:07.045Z,101195.34
2022-09-04T23:35:15.844Z,101198.19
2022-09-04T23:38:39.788Z,101199.16
2022-09-04T23:41:54.170Z,101199.28
2022-09-04T23:45:05.471Z,101201.97
2022-09-04T23:48:23.151Z,101199.41
2022-09-04T23:51:34.376Z,101188.97
2022-09-04T23:54:51.382Z,101196.91
2022-09-04T23:58:22.815Z,101192.75
